createdAt,value
2023-04-03T00:00:57.445Z,1.30
2023-04-03T00:02:59.984Z,1.40
2023-04-03T00:05:02.521Z,1.50
2023-04-03T00:07:04.980Z,1.80
2023-04-03T00:09:09.381Z,2.00
2023-04-03T00:11:11.837Z,2.00
2023-04-03T00:13:15.175Z,2.20
2023-04-03T00:15:17.837Z,2.40
2023-04-03T00:17:20.312Z,2.40
2023-04-03T00:19:22.772Z,2.60
2023-04-03T00:21:25.253Z,2.60
2023-04-03T00:23:27.947Z,2.60
2023-04-03T00:25:30.454Z,2.60
2023-04-03T00:27:33.105Z,2.70
2023-04-03T00:29:35.657Z,2.70
2023-04-03T00:31:38.139Z,2.80
2023-04-03T00:33:40.712Z,2.90
2023-04-03T00:35:43.766Z,3.00
2023-04-03T00:37:46.819Z,3.00
2023-04-03T00:39:49.252Z,3.00
2023-04-03T00:41:51.868Z,3.00
2023-04-03T00:43:55.257Z,3.00
2023-04-03T00:45:58.319Z,3.00
2023-04-03T00:48:01.651Z,3.00
2023-04-03T00:50:05.651Z,3.10
2023-04-03T00:52:09.916Z,3.00
2023-04-03T00:54:13.059Z,3.00
2023-04-03T00:56:17.604Z,3.00
2023-04-03T00:58:21.424Z,2.90
2023-04-03T01:00:23.980Z,2.90
2023-04-03T01:02:26.910Z,2.90
2023-04-03T01:04:30.250Z,2.90
2023-04-03T01:06:34.350Z,2.80
2023-04-03T01:08:39.263Z,2.80
2023-04-03T01:10:41.867Z,2.80
2023-04-03T01:12:46.594Z,2.80
2023-04-03T01:14:51.085Z,2.80
2023-04-03T01:16:54.445Z,2.80
2023-04-03T01:18:57.115Z,2.70
2023-04-03T01:21:13.545Z,2.70
2023-04-03T01:23:21.159Z,2.70
2023-04-03T01:25:23.740Z,2.70
2023-04-03T01:27:26.479Z,2.70
2023-04-03T01:29:29.100Z,2.70
2023-04-03T01:31:34.562Z,2.70
2023-04-03T01:33:38.012Z,2.70
2023-04-03T01:35:40.610Z,2.60
2023-04-03T01:37:43.266Z,2.60
2023-04-03T01:39:46.040Z,2.50
2023-04-03T01:41:48.898Z,2.50
2023-04-03T01:43:53.288Z,2.50
2023-04-03T01:45:56.291Z,2.40
2023-04-03T01:47:58.983Z,2.40
2023-04-03T01:50:02.398Z,2.40
2023-04-03T01:52:06.809Z,2.40
2023-04-03T01:54:09.382Z,2.30
2023-04-03T01:56:12.251Z,2.30
2023-04-03T01:58:15.043Z,2.30
2023-04-03T02:00:18.156Z,2.30
2023-04-03T02:02:20.995Z,2.30
2023-04-03T02:04:23.699Z,2.40
2023-04-03T02:06:26.576Z,2.30
2023-04-03T02:08:29.139Z,2.30
2023-04-03T02:10:31.632Z,2.30
2023-04-03T02:12:34.326Z,2.20
2023-04-03T02:14:37.355Z,2.20
2023-04-03T02:16:39.986Z,2.20
2023-04-03T02:18:42.650Z,2.30
2023-04-03T02:20:45.337Z,2.20
2023-04-03T02:22:47.936Z,2.20
2023-04-03T02:24:50.723Z,2.20
2023-04-03T02:26:53.213Z,2.20
2023-04-03T02:28:55.783Z,2.10
2023-04-03T02:30:59.035Z,2.10
2023-04-03T02:33:02.368Z,2.10
2023-04-03T02:35:06.534Z,2.10
2023-04-03T02:37:09.306Z,2.00
2023-04-03T02:39:12.312Z,2.00
2023-04-03T02:41:15.132Z,2.00
2023-04-03T02:43:17.740Z,2.00
2023-04-03T02:45:20.420Z,1.90
2023-04-03T02:47:23.612Z,1.90
2023-04-03T02:49:26.670Z,1.90
2023-04-03T02:51:29.237Z,1.80
2023-04-03T02:53:31.838Z,1.80
2023-04-03T02:55:34.916Z,1.70
2023-04-03T02:57:37.590Z,1.70
2023-04-03T02:59:41.253Z,1.70
2023-04-03T03:01:44.372Z,1.60
2023-04-03T03:03:47.016Z,1.60
2023-04-03T03:05:49.713Z,1.60
2023-04-03T03:07:52.168Z,1.50
2023-04-03T03:09:54.758Z,1.50
2023-04-03T03:11:57.463Z,1.50
2023-04-03T03:14:00.092Z,1.50
2023-04-03T03:16:03.014Z,1.50
2023-04-03T03:18:05.912Z,1.50
2023-04-03T03:20:10.019Z,1.50
2023-04-03T03:22:12.592Z,1.50
2023-04-03T03:24:16.337Z,1.40
2023-04-03T03:26:18.947Z,1.40
2023-04-03T03:28:21.423Z,1.30
2023-04-03T03:30:25.529Z,1.40
2023-04-03T03:32:28.342Z,1.50
2023-04-03T03:34:31.450Z,1.30
2023-04-03T03:36:34.145Z,1.30
2023-04-03T03:38:36.853Z,1.20
2023-04-03T03:40:39.712Z,1.20
2023-04-03T03:42:42.724Z,1.20
2023-04-03T03:44:46.227Z,1.20
2023-04-03T03:46:49.163Z,1.20
2023-04-03T03:48:51.816Z,1.20
2023-04-03T03:50:54.390Z,1.10
2023-04-03T03:52:58.760Z,1.10
2023-04-03T03:55:01.458Z,1.10
2023-04-03T03:57:04.213Z,1.10
2023-04-03T03:59:06.989Z,1.10
2023-04-03T04:01:10.377Z,1.10
2023-04-03T04:03:14.855Z,1.00
2023-04-03T04:05:19.217Z,1.00
2023-04-03T04:07:22.286Z,1.00
2023-04-03T04:09:24.933Z,1.00
2023-04-03T04:11:28.152Z,1.00
2023-04-03T04:13:31.202Z,0.90
2023-04-03T04:15:34.260Z,0.90
2023-04-03T04:17:37.040Z,0.90
2023-04-03T04:19:39.872Z,0.90
2023-04-03T04:21:42.693Z,0.80
2023-04-03T04:23:45.370Z,0.80
2023-04-03T04:25:48.798Z,0.80
2023-04-03T04:27:51.365Z,0.80
2023-04-03T04:29:54.048Z,0.80
2023-04-03T04:31:57.416Z,0.80
2023-04-03T04:34:01.008Z,0.70
2023-04-03T04:36:03.946Z,0.70
2023-04-03T04:38:08.996Z,0.70
2023-04-03T04:40:12.446Z,0.70
2023-04-03T04:42:17.861Z,0.70
2023-04-03T04:44:22.130Z,0.70
2023-04-03T04:46:25.728Z,0.70
2023-04-03T04:48:32.572Z,0.70
2023-04-03T04:50:36.340Z,0.70
2023-04-03T04:52:39.018Z,0.70
2023-04-03T04:54:42.079Z,0.70
2023-04-03T04:56:45.324Z,0.70
2023-04-03T04:58:47.979Z,0.70
2023-04-03T05:00:53.457Z,0.70
2023-04-03T05:02:56.202Z,0.70
2023-04-03T05:04:58.957Z,0.70
2023-04-03T05:07:03.393Z,0.70
2023-04-03T05:09:06.398Z,0.70
2023-04-03T05:11:09.773Z,0.70
2023-04-03T05:13:13.009Z,0.60
2023-04-03T05:15:15.760Z,0.70
2023-04-03T05:17:18.570Z,0.70
2023-04-03T05:19:22.963Z,0.70
2023-04-03T05:21:26.555Z,0.70
2023-04-03T05:23:29.222Z,0.70
2023-04-03T05:25:32.229Z,0.80
2023-04-03T05:27:35.322Z,0.80
2023-04-03T05:29:38.476Z,0.80
2023-04-03T05:31:41.522Z,0.80
2023-04-03T05:33:46.477Z,1.00
2023-04-03T05:35:51.325Z,1.00
2023-04-03T05:37:56.022Z,1.10
2023-04-03T05:39:59.645Z,1.10
2023-04-03T05:42:02.725Z,1.20
2023-04-03T05:44:05.436Z,1.20
2023-04-03T05:46:10.630Z,1.20
2023-04-03T05:48:13.261Z,1.20
2023-04-03T05:50:16.417Z,1.20
2023-04-03T05:52:21.206Z,1.30
2023-04-03T05:54:25.616Z,1.30
2023-04-03T05:56:30.346Z,1.50
2023-04-03T05:58:32.967Z,1.50
2023-04-03T06:00:35.543Z,1.50
2023-04-03T06:02:38.505Z,1.60
2023-04-03T06:04:41.226Z,1.60
2023-04-03T06:06:44.703Z,1.80
2023-04-03T06:08:47.404Z,1.80
2023-04-03T06:10:51.400Z,1.90
2023-04-03T06:12:53.962Z,2.00
2023-04-03T06:14:56.621Z,2.00
2023-04-03T06:16:59.833Z,2.00
2023-04-03T06:19:03.018Z,2.10
2023-04-03T06:21:07.649Z,2.10
2023-04-03T06:23:12.136Z,2.00
2023-04-03T06:25:17.234Z,2.10
2023-04-03T06:27:20.081Z,2.10
2023-04-03T06:29:22.931Z,2.10
2023-04-03T06:31:25.792Z,2.20
2023-04-03T06:33:28.352Z,2.10
2023-04-03T06:35:31.000Z,2.10
2023-04-03T06:37:33.518Z,2.20
2023-04-03T06:39:36.183Z,2.20
2023-04-03T06:41:38.744Z,2.10
2023-04-03T06:43:41.297Z,2.10
2023-04-03T06:45:43.779Z,2.10
2023-04-03T06:47:46.453Z,2.10
2023-04-03T06:49:49.007Z,2.10
2023-04-03T06:51:51.981Z,2.10
2023-04-03T06:53:55.464Z,2.20
2023-04-03T06:55:58.042Z,2.10
2023-04-03T06:58:01.847Z,2.30
2023-04-03T07:00:05.746Z,2.40
2023-04-03T07:02:10.142Z,2.30
2023-04-03T07:04:12.998Z,2.40
2023-04-03T07:06:16.316Z,2.50
2023-04-03T07:08:18.769Z,2.50
2023-04-03T07:10:21.289Z,2.70
2023-04-03T07:12:23.780Z,2.60
2023-04-03T07:14:26.388Z,2.70
2023-04-03T07:16:30.889Z,2.60
2023-04-03T07:18:33.802Z,2.50
2023-04-03T07:20:36.673Z,2.50
2023-04-03T07:22:40.660Z,2.60
2023-04-03T07:24:43.490Z,2.60
2023-04-03T07:26:47.856Z,2.60
2023-04-03T07:28:51.028Z,2.60
2023-04-03T07:30:54.444Z,2.50
2023-04-03T07:32:57.086Z,2.60
2023-04-03T07:35:00.608Z,2.70
2023-04-03T07:37:04.011Z,2.80
2023-04-03T07:39:08.018Z,2.90
2023-04-03T07:41:12.836Z,2.90
2023-04-03T07:43:16.095Z,2.80
2023-04-03T07:45:19.405Z,2.90
2023-04-03T07:47:22.226Z,3.00
2023-04-03T07:49:34.700Z,2.90
2023-04-03T07:51:40.256Z,2.90
2023-04-03T07:53:42.765Z,3.20
2023-04-03T07:55:46.617Z,3.00
2023-04-03T07:57:49.177Z,3.00
2023-04-03T07:59:53.797Z,3.10
2023-04-03T08:02:09.481Z,3.20
2023-04-03T08:04:12.594Z,3.10
2023-04-03T08:06:16.370Z,3.30
2023-04-03T08:08:21.471Z,3.40
2023-04-03T08:10:24.167Z,3.40
2023-04-03T08:12:28.517Z,3.40
2023-04-03T08:14:34.929Z,3.30
2023-04-03T08:16:37.672Z,3.50
2023-04-03T08:18:40.582Z,3.80
2023-04-03T08:20:43.054Z,3.90
2023-04-03T08:22:45.564Z,4.00
2023-04-03T08:24:58.477Z,3.90
2023-04-03T08:26:52.592Z,3.80
2023-04-03T08:28:57.853Z,3.80
2023-04-03T08:31:04.154Z,3.80
2023-04-03T08:33:06.887Z,3.80
2023-04-03T08:35:11.018Z,3.80
2023-04-03T08:37:13.617Z,3.90
2023-04-03T08:39:16.614Z,3.90
2023-04-03T08:41:22.205Z,4.20
2023-04-03T08:43:28.691Z,4.10
2023-04-03T08:45:36.328Z,4.10
2023-04-03T08:49:57.237Z,4.10
2023-04-03T08:52:05.493Z,4.30
2023-04-03T08:54:10.990Z,4.30
2023-04-03T08:56:15.326Z,4.30
2023-04-03T08:58:19.753Z,4.80
2023-04-03T09:00:24.635Z,5.00
2023-04-03T09:02:29.132Z,5.20
2023-04-03T09:04:33.417Z,5.10
2023-04-03T09:06:37.707Z,5.40
2023-04-03T09:08:43.808Z,5.10
2023-04-03T09:10:46.403Z,5.20
2023-04-03T09:12:52.473Z,5.50
2023-04-03T09:14:59.030Z,5.30
2023-04-03T09:17:03.336Z,5.40
2023-04-03T09:19:09.819Z,5.50
2023-04-03T09:21:15.343Z,5.50
2023-04-03T09:23:21.188Z,5.40
2023-04-03T09:25:24.701Z,5.50
2023-04-03T09:27:27.302Z,5.40
2023-04-03T09:29:30.162Z,5.60
2023-04-03T09:31:36.017Z,5.70
2023-04-03T09:33:38.877Z,5.60
2023-04-03T09:35:48.034Z,5.80
2023-04-03T09:37:47.251Z,5.50
2023-04-03T09:39:50.920Z,5.70
2023-04-03T09:41:57.939Z,5.90
2023-04-03T09:44:00.447Z,6.00
2023-04-03T09:46:38.616Z,6.10
2023-04-03T09:51:03.471Z,6.70
2023-04-03T09:53:07.774Z,6.70
2023-04-03T09:55:13.400Z,6.00
2023-04-03T09:57:16.622Z,5.90
2023-04-03T09:59:20.274Z,6.60
2023-04-03T10:01:25.814Z,6.50
2023-04-03T10:03:31.041Z,6.60
2023-04-03T10:05:42.528Z,7.10
2023-04-03T10:07:51.671Z,7.30
2023-04-03T10:09:57.322Z,7.50
2023-04-03T10:12:05.602Z,7.10
2023-04-03T10:14:13.893Z,6.90
2023-04-03T10:16:18.406Z,6.90
2023-04-03T10:18:33.396Z,7.40
2023-04-03T10:20:38.361Z,7.40
2023-04-03T10:22:43.932Z,7.70
2023-04-03T10:24:49.447Z,7.30
2023-04-03T10:26:54.447Z,7.30
2023-04-03T10:28:59.137Z,7.40
2023-04-03T10:31:05.871Z,7.10
2023-04-03T10:33:16.404Z,7.20
2023-04-03T10:35:21.547Z,7.30
2023-04-03T10:37:25.784Z,7.40
2023-04-03T10:39:31.268Z,7.30
2023-04-03T10:43:54.121Z,7.30
2023-04-03T10:45:59.545Z,7.60
2023-04-03T10:48:05.090Z,7.40
2023-04-03T10:50:12.564Z,7.70
2023-04-03T10:52:17.050Z,7.80
2023-04-03T10:54:21.394Z,8.00
2023-04-03T10:56:26.484Z,7.50
2023-04-03T10:58:31.041Z,7.70
2023-04-03T11:00:37.595Z,7.60
2023-04-03T11:02:42.596Z,7.40
2023-04-03T11:04:47.820Z,7.20
2023-04-03T11:06:51.744Z,7.60
2023-04-03T11:08:57.206Z,7.70
2023-04-03T11:11:03.767Z,7.20
2023-04-03T11:13:10.187Z,7.30
2023-04-03T11:15:14.305Z,7.60
2023-04-03T11:17:19.355Z,7.80
2023-04-03T11:19:24.628Z,8.10
2023-04-03T11:21:30.834Z,7.90
2023-04-03T11:23:45.944Z,7.40
2023-04-03T11:25:41.895Z,7.60
2023-04-03T11:27:46.455Z,7.90
2023-04-03T11:29:50.236Z,7.60
2023-04-03T11:32:00.610Z,7.70
2023-04-03T11:34:08.869Z,7.60
2023-04-03T11:36:24.958Z,7.60
2023-04-03T11:38:20.824Z,7.70
2023-04-03T11:40:25.825Z,8.10
2023-04-03T11:42:31.597Z,8.20
2023-04-03T11:44:37.874Z,8.40
2023-04-03T11:46:57.822Z,8.40
2023-04-03T11:49:01.374Z,8.10
2023-04-03T11:51:06.087Z,7.90
2023-04-03T11:53:28.984Z,7.90
2023-04-03T11:55:44.950Z,7.70
2023-04-03T11:57:50.216Z,8.00
2023-04-03T11:59:52.861Z,8.30
2023-04-03T12:01:56.023Z,8.30
2023-04-03T12:04:10.533Z,8.10
2023-04-03T12:06:31.279Z,8.00
2023-04-03T12:08:38.957Z,8.30
2023-04-03T12:10:41.441Z,7.90
2023-04-03T12:12:44.034Z,7.70
2023-04-03T12:14:46.499Z,7.90
2023-04-03T12:16:49.017Z,7.80
2023-04-03T12:19:03.720Z,8.00
2023-04-03T12:21:06.167Z,8.10
2023-04-03T12:23:09.126Z,8.10
2023-04-03T12:25:30.938Z,8.10
2023-04-03T12:27:37.964Z,7.70
2023-04-03T12:29:43.907Z,8.00
2023-04-03T12:31:49.891Z,8.00
2023-04-03T12:34:01.139Z,8.10
2023-04-03T12:36:07.135Z,8.20
2023-04-03T12:38:25.738Z,7.90
2023-04-03T12:40:30.609Z,7.80
2023-04-03T12:42:36.597Z,7.90
2023-04-03T12:44:42.082Z,8.10
2023-04-03T12:46:46.234Z,7.80
2023-04-03T12:48:50.712Z,7.80
2023-04-03T12:50:53.497Z,8.10
2023-04-03T12:52:59.333Z,7.90
2023-04-03T12:55:04.471Z,7.90
2023-04-03T12:57:11.206Z,8.10
2023-04-03T12:59:18.589Z,8.00
2023-04-03T13:01:24.322Z,8.00
2023-04-03T13:03:27.566Z,8.00
2023-04-03T13:05:30.703Z,8.20
2023-04-03T13:07:35.011Z,8.40
2023-04-03T13:09:37.555Z,8.30
2023-04-03T13:11:41.686Z,8.20
2023-04-03T13:13:55.257Z,8.30
2023-04-03T13:15:58.067Z,8.70
2023-04-03T13:18:00.996Z,8.80
2023-04-03T13:20:14.888Z,8.80
2023-04-03T13:22:22.801Z,8.50
2023-04-03T13:24:26.026Z,8.20
2023-04-03T13:26:30.810Z,7.90
2023-04-03T13:28:34.048Z,8.00
2023-04-03T13:30:38.151Z,8.00
2023-04-03T13:32:42.678Z,8.50
2023-04-03T13:37:03.729Z,8.20
2023-04-03T13:39:07.930Z,8.00
2023-04-03T13:41:24.828Z,8.20
2023-04-03T13:43:28.523Z,8.40
2023-04-03T13:45:31.844Z,8.60
2023-04-03T13:47:40.147Z,8.80
2023-04-03T13:49:44.421Z,8.80
2023-04-03T13:51:51.517Z,8.80
2023-04-03T13:53:53.764Z,8.50
2023-04-03T13:56:00.954Z,8.30
2023-04-03T13:58:05.226Z,7.90
2023-04-03T14:00:42.202Z,8.00
2023-04-03T14:05:01.761Z,8.20
2023-04-03T14:07:04.423Z,8.30
2023-04-03T14:09:06.905Z,8.50
2023-04-03T14:11:12.536Z,8.50
2023-04-03T14:13:16.159Z,8.50
2023-04-03T14:15:20.644Z,8.50
2023-04-03T14:17:25.641Z,8.20
2023-04-03T14:19:29.504Z,7.70
2023-04-03T14:21:32.826Z,7.70
2023-04-03T14:23:35.294Z,7.80
2023-04-03T14:25:38.065Z,7.90
2023-04-03T14:27:41.658Z,7.80
2023-04-03T14:29:44.325Z,7.80
2023-04-03T14:31:47.451Z,8.00
2023-04-03T14:33:50.415Z,8.10
2023-04-03T14:35:54.043Z,8.30
2023-04-03T14:37:57.155Z,8.60
2023-04-03T14:40:00.512Z,8.90
2023-04-03T14:42:03.068Z,8.90
2023-04-03T14:44:06.096Z,8.60
2023-04-03T14:46:13.526Z,8.50
2023-04-03T14:48:19.355Z,8.50
2023-04-03T14:50:23.255Z,8.50
2023-04-03T14:52:27.184Z,8.60
2023-04-03T14:54:29.990Z,8.70
2023-04-03T14:56:32.527Z,8.60
2023-04-03T14:58:36.885Z,8.20
2023-04-03T15:00:39.595Z,8.10
2023-04-03T15:02:42.542Z,7.90
2023-04-03T15:04:45.570Z,7.80
2023-04-03T15:06:48.934Z,7.90
2023-04-03T15:08:53.043Z,8.10
2023-04-03T15:10:57.942Z,8.00
2023-04-03T15:13:00.972Z,8.30
2023-04-03T15:15:04.482Z,8.50
2023-04-03T15:17:09.192Z,8.50
2023-04-03T15:19:12.563Z,8.60
2023-04-03T15:21:15.612Z,8.20
2023-04-03T15:23:18.086Z,8.20
2023-04-03T15:25:20.562Z,8.20
2023-04-03T15:27:23.113Z,8.40
2023-04-03T15:29:25.609Z,8.40
2023-04-03T15:31:28.270Z,8.80
2023-04-03T15:33:31.216Z,8.60
2023-04-03T15:35:33.818Z,8.50
2023-04-03T15:37:36.316Z,8.40
2023-04-03T15:39:38.790Z,8.50
2023-04-03T15:41:41.364Z,8.80
2023-04-03T15:43:43.943Z,8.70
2023-04-03T15:45:46.569Z,8.50
2023-04-03T15:47:49.234Z,8.70
2023-04-03T15:49:51.944Z,8.50
2023-04-03T15:51:54.512Z,8.30
2023-04-03T15:53:56.985Z,8.20
2023-04-03T15:55:59.569Z,8.00
2023-04-03T15:58:02.983Z,7.90
2023-04-03T16:00:07.439Z,7.80
2023-04-03T16:02:10.978Z,7.90
2023-04-03T16:04:14.831Z,7.90
2023-04-03T16:06:20.605Z,8.20
2023-04-03T16:08:23.156Z,8.20
2023-04-03T16:10:26.538Z,8.10
2023-04-03T16:12:29.004Z,8.00
2023-04-03T16:14:31.482Z,7.90
2023-04-03T16:16:33.993Z,7.70
2023-04-03T16:18:36.498Z,7.60
2023-04-03T16:20:39.159Z,7.60
2023-04-03T16:22:42.265Z,7.60
2023-04-03T16:24:45.725Z,7.70
2023-04-03T16:26:48.497Z,8.00
2023-04-03T16:28:50.968Z,7.90
2023-04-03T16:30:53.635Z,7.70
2023-04-03T16:33:08.163Z,7.50
2023-04-03T16:35:11.269Z,7.70
2023-04-03T16:37:13.819Z,7.60
2023-04-03T16:39:16.362Z,7.70
2023-04-03T16:41:19.000Z,7.70
2023-04-03T16:43:21.465Z,7.40
2023-04-03T16:45:24.075Z,7.40
2023-04-03T16:47:26.685Z,7.50
2023-04-03T16:49:31.095Z,7.50
2023-04-03T16:51:33.646Z,7.40
2023-04-03T16:53:36.416Z,7.30
2023-04-03T16:55:39.915Z,7.40
2023-04-03T16:57:42.431Z,7.30
2023-04-03T16:59:44.906Z,7.20
2023-04-03T17:01:48.248Z,7.30
2023-04-03T17:03:50.883Z,7.30
2023-04-03T17:05:53.464Z,7.30
2023-04-03T17:07:55.967Z,7.10
2023-04-03T17:10:00.843Z,7.20
2023-04-03T17:12:03.532Z,7.10
2023-04-03T17:14:06.316Z,7.10
2023-04-03T17:16:11.145Z,7.10
2023-04-03T17:18:13.624Z,7.00
2023-04-03T17:20:16.261Z,7.00
2023-04-03T17:22:18.789Z,7.00
2023-04-03T17:24:21.352Z,7.00
2023-04-03T17:26:23.829Z,7.00
2023-04-03T17:28:28.210Z,6.90
2023-04-03T17:30:30.906Z,6.80
2023-04-03T17:32:33.514Z,6.70
2023-04-03T17:34:37.155Z,6.60
2023-04-03T17:36:39.804Z,6.60
2023-04-03T17:38:42.704Z,6.60
2023-04-03T17:40:45.323Z,6.50
2023-04-03T17:42:47.762Z,6.40
2023-04-03T17:44:50.337Z,6.40
2023-04-03T17:46:53.753Z,6.40
2023-04-03T17:48:58.738Z,6.30
2023-04-03T17:53:16.786Z,6.20
2023-04-03T17:55:19.405Z,6.10
2023-04-03T17:57:21.901Z,6.10
2023-04-03T17:59:24.467Z,6.00
2023-04-03T18:01:27.682Z,6.00
2023-04-03T18:03:30.181Z,6.00
2023-04-03T18:05:32.808Z,5.90
2023-04-03T18:07:35.344Z,5.90
2023-04-03T18:09:40.259Z,5.80
2023-04-03T18:11:43.443Z,5.80
2023-04-03T18:13:46.190Z,5.70
2023-04-03T18:15:49.050Z,5.70
2023-04-03T18:17:53.487Z,5.60
2023-04-03T18:19:56.168Z,5.50
2023-04-03T18:22:00.595Z,5.50
2023-04-03T18:24:04.909Z,5.40
2023-04-03T18:26:08.116Z,5.40
2023-04-03T18:28:10.641Z,5.40
2023-04-03T18:30:15.149Z,5.20
2023-04-03T18:32:18.727Z,5.20
2023-04-03T18:34:21.192Z,5.20
2023-04-03T18:36:23.919Z,5.20
2023-04-03T18:38:26.498Z,5.10
2023-04-03T18:40:29.104Z,5.10
2023-04-03T18:42:31.795Z,5.00
2023-04-03T18:46:51.046Z,4.90
2023-04-03T18:48:54.071Z,4.90
2023-04-03T18:50:56.546Z,4.80
2023-04-03T18:52:59.063Z,4.80
2023-04-03T18:55:01.716Z,4.70
2023-04-03T18:57:04.384Z,4.80
2023-04-03T18:59:07.616Z,4.70
2023-04-03T19:01:10.197Z,4.70
2023-04-03T19:03:13.635Z,4.70
2023-04-03T19:05:16.866Z,4.60
2023-04-03T19:07:19.698Z,4.60
2023-04-03T19:09:22.579Z,4.50
2023-04-03T19:11:25.243Z,4.50
2023-04-03T19:13:27.718Z,4.40
2023-04-03T19:15:30.195Z,4.40
2023-04-03T19:17:33.974Z,4.30
2023-04-03T19:19:36.510Z,4.20
2023-04-03T19:21:40.560Z,4.20
2023-04-03T19:23:44.551Z,4.20
2023-04-03T19:25:47.947Z,4.20
2023-04-03T19:27:51.160Z,4.20
2023-04-03T19:29:53.692Z,4.10
2023-04-03T19:31:56.227Z,4.10
2023-04-03T19:33:58.777Z,4.10
2023-04-03T19:36:01.276Z,4.10
2023-04-03T19:38:03.838Z,4.10
2023-04-03T19:40:08.441Z,4.10
2023-04-03T19:42:11.049Z,4.10
2023-04-03T19:44:13.678Z,4.00
2023-04-03T19:46:18.087Z,4.00
2023-04-03T19:48:20.731Z,4.00
2023-04-03T19:50:23.436Z,4.00
2023-04-03T19:52:25.963Z,3.90
2023-04-03T19:54:28.445Z,3.90
2023-04-03T19:56:31.199Z,3.80
2023-04-03T19:58:33.889Z,3.80
2023-04-03T20:00:36.841Z,3.80
2023-04-03T20:02:39.539Z,3.70
2023-04-03T20:04:42.604Z,3.70
2023-04-03T20:06:46.148Z,3.70
2023-04-03T20:08:48.995Z,3.60
2023-04-03T20:10:51.462Z,3.70
2023-04-03T20:12:54.159Z,3.70
2023-04-03T20:14:57.449Z,3.70
2023-04-03T20:16:59.986Z,3.70
2023-04-03T20:19:03.012Z,3.70
2023-04-03T20:21:07.018Z,3.60
2023-04-03T20:23:10.646Z,3.60
2023-04-03T20:25:17.354Z,3.60
2023-04-03T20:27:18.948Z,3.50
2023-04-03T20:29:21.730Z,3.50
2023-04-03T20:31:25.255Z,3.50
2023-04-03T20:33:28.618Z,3.40
2023-04-03T20:35:32.316Z,3.40
2023-04-03T20:37:35.753Z,3.30
2023-04-03T20:39:38.912Z,3.30
2023-04-03T20:41:41.986Z,3.30
2023-04-03T20:43:45.916Z,3.30
2023-04-03T20:45:48.896Z,3.30
2023-04-03T20:47:53.167Z,3.30
2023-04-03T20:49:56.112Z,3.30
2023-04-03T20:51:58.616Z,3.20
2023-04-03T20:54:01.262Z,3.20
2023-04-03T20:56:04.850Z,3.20
2023-04-03T20:58:08.222Z,3.10
2023-04-03T21:00:13.218Z,3.10
2023-04-03T21:02:16.044Z,3.10
2023-04-03T21:04:20.906Z,3.10
2023-04-03T21:06:41.096Z,3.10
2023-04-03T21:09:01.143Z,3.10
2023-04-03T21:11:23.509Z,3.00
2023-04-03T21:13:44.209Z,2.90
2023-04-03T21:15:49.142Z,2.80
2023-04-03T21:17:57.297Z,2.80
2023-04-03T21:19:59.932Z,2.80
2023-04-03T21:22:03.085Z,2.70
2023-04-03T21:24:08.751Z,2.70
2023-04-03T21:26:11.344Z,2.70
2023-04-03T21:28:14.065Z,2.80
2023-04-03T21:32:32.548Z,2.50
2023-04-03T21:34:35.197Z,2.50
2023-04-03T21:36:40.245Z,2.50
2023-04-03T21:38:44.593Z,2.60
2023-04-03T21:40:48.564Z,2.60
2023-04-03T21:42:53.964Z,2.60
2023-04-03T21:44:56.451Z,2.60
2023-04-03T21:46:59.255Z,2.60
2023-04-03T21:49:02.246Z,2.60
2023-04-03T21:51:05.958Z,2.50
2023-04-03T21:53:08.500Z,2.40
2023-04-03T21:55:11.021Z,2.20
2023-04-03T21:57:13.991Z,2.10
2023-04-03T21:59:16.635Z,2.00
2023-04-03T22:01:20.049Z,2.00
2023-04-03T22:03:22.906Z,2.00
2023-04-03T22:05:25.554Z,2.00
2023-04-03T22:07:28.036Z,2.00
2023-04-03T22:09:30.528Z,1.80
2023-04-03T22:11:33.132Z,1.90
2023-04-03T22:13:35.723Z,1.90
2023-04-03T22:15:40.862Z,1.80
2023-04-03T22:17:44.079Z,1.80
2023-04-03T22:19:47.054Z,1.80
2023-04-03T22:21:49.501Z,1.70
2023-04-03T22:23:54.365Z,1.60
2023-04-03T22:26:01.386Z,1.60
2023-04-03T22:28:03.908Z,1.60
2023-04-03T22:30:07.780Z,1.50
2023-04-03T22:32:10.375Z,1.70
2023-04-03T22:34:13.029Z,1.70
2023-04-03T22:36:15.790Z,1.70
2023-04-03T22:38:18.374Z,1.60
2023-04-03T22:40:20.868Z,1.60
2023-04-03T22:42:23.332Z,1.50
2023-04-03T22:44:29.695Z,1.40
2023-04-03T22:46:30.342Z,1.30
2023-04-03T22:48:32.956Z,1.20
2023-04-03T22:50:38.364Z,1.10
2023-04-03T22:52:41.049Z,1.00
2023-04-03T22:54:43.559Z,1.00
2023-04-03T22:56:46.025Z,0.90
2023-04-03T22:58:49.201Z,0.80
2023-04-03T23:00:51.841Z,0.80
2023-04-03T23:02:54.372Z,0.80
2023-04-03T23:04:56.882Z,0.70
2023-04-03T23:06:59.464Z,0.60
2023-04-03T23:09:02.007Z,0.50
2023-04-03T23:11:06.283Z,0.50
2023-04-03T23:13:08.775Z,0.50
2023-04-03T23:15:13.383Z,0.40
2023-04-03T23:17:15.992Z,0.40
2023-04-03T23:19:18.454Z,0.40
2023-04-03T23:21:20.930Z,0.30
2023-04-03T23:23:23.965Z,0.30
2023-04-03T23:25:26.554Z,0.30
2023-04-03T23:27:29.004Z,0.30
2023-04-03T23:29:32.714Z,0.30
2023-04-03T23:31:35.313Z,0.40
2023-04-03T23:33:38.061Z,0.40
2023-04-03T23:35:43.563Z,0.40
2023-04-03T23:37:46.281Z,0.40
2023-04-03T23:39:48.734Z,0.40
2023-04-03T23:41:51.326Z,0.30
2023-04-03T23:43:53.916Z,0.30
2023-04-03T23:45:56.505Z,0.30
2023-04-03T23:47:59.586Z,0.20
2023-04-03T23:50:02.054Z,0.20
2023-04-03T23:52:04.890Z,0.30
2023-04-03T23:54:07.388Z,0.20
2023-04-03T23:56:11.803Z,0.20
2023-04-03T23:58:14.264Z,0.20
